createdAt,value
2018-01-26T00:01:03.782Z,17.65
2018-01-26T00:03:31.266Z,19.83
2018-01-26T00:05:58.740Z,21.00
2018-01-26T00:08:26.187Z,21.02
2018-01-26T00:10:53.617Z,19.08
2018-01-26T00:13:21.185Z,18.13
2018-01-26T00:15:48.618Z,21.15
2018-01-26T00:18:16.061Z,20.88
2018-01-26T00:20:44.050Z,24.73
2018-01-26T00:23:11.645Z,22.67
2018-01-26T00:25:39.094Z,20.58
2018-01-26T00:28:06.517Z,17.87
2018-01-26T00:30:33.957Z,20.73
2018-01-26T00:33:01.398Z,19.17
2018-01-26T00:35:29.618Z,21.40
2018-01-26T00:37:57.050Z,19.70
2018-01-26T00:40:24.533Z,17.10
2018-01-26T00:42:51.994Z,20.52
2018-01-26T00:45:19.449Z,21.42
2018-01-26T00:47:46.916Z,20.20
2018-01-26T00:50:14.365Z,18.85
2018-01-26T00:52:41.802Z,27.65
2018-01-26T00:55:09.269Z,20.12
2018-01-26T00:57:36.736Z,19.35
2018-01-26T01:00:04.194Z,21.85
2018-01-26T01:02:31.641Z,21.17
2018-01-26T01:04:59.085Z,21.97
2018-01-26T01:07:26.557Z,19.52
2018-01-26T01:09:53.997Z,19.05
2018-01-26T01:12:21.430Z,20.12
2018-01-26T01:14:48.873Z,19.58
2018-01-26T01:17:17.093Z,21.23
2018-01-26T01:19:44.573Z,18.12
2018-01-26T01:22:12.010Z,16.45
2018-01-26T01:24:39.442Z,17.70
2018-01-26T01:27:06.946Z,19.60
2018-01-26T01:29:34.485Z,17.70
2018-01-26T01:32:01.933Z,17.20
2018-01-26T01:34:29.368Z,18.40
2018-01-26T01:36:56.798Z,22.70
2018-01-26T01:39:24.997Z,18.33
2018-01-26T01:41:52.482Z,18.35
2018-01-26T01:44:19.911Z,19.53
2018-01-26T01:46:47.345Z,18.58
2018-01-26T01:49:16.469Z,20.52
2018-01-26T01:51:43.905Z,17.33
2018-01-26T01:54:11.334Z,20.75
2018-01-26T01:56:38.773Z,18.27
2018-01-26T01:59:07.741Z,20.48
2018-01-26T02:01:35.178Z,18.95
2018-01-26T02:04:02.654Z,21.40
2018-01-26T02:06:30.081Z,18.58
2018-01-26T02:08:57.522Z,18.27
2018-01-26T02:11:25.746Z,18.87
2018-01-26T02:13:53.181Z,16.55
2018-01-26T02:16:20.626Z,17.70
2018-01-26T02:18:48.113Z,19.85
2018-01-26T02:21:15.577Z,21.40
2018-01-26T02:24:00.693Z,22.13
2018-01-26T02:26:28.914Z,24.73
2018-01-26T02:28:56.366Z,24.85
2018-01-26T02:31:23.797Z,22.73
2018-01-26T02:33:51.238Z,22.77
2018-01-26T02:36:18.666Z,24.60
2018-01-26T02:38:46.105Z,21.30
2018-01-26T02:41:13.538Z,19.48
2018-01-26T02:43:41.001Z,17.83
2018-01-26T02:46:08.430Z,22.63
2018-01-26T02:48:35.862Z,17.05
2018-01-26T02:51:04.074Z,20.05
2018-01-26T02:53:31.554Z,19.48
2018-01-26T02:55:58.997Z,17.65
2018-01-26T02:58:26.457Z,19.30
2018-01-26T03:00:53.885Z,17.02
2018-01-26T03:03:22.209Z,18.02
2018-01-26T03:05:49.758Z,17.90
2018-01-26T03:08:17.228Z,21.37
2018-01-26T03:10:44.662Z,20.07
2018-01-26T03:13:12.099Z,20.05
2018-01-26T03:15:39.537Z,16.02
2018-01-26T03:18:07.036Z,16.55
2018-01-26T03:20:34.594Z,17.77
2018-01-26T03:23:02.041Z,19.65
2018-01-26T03:25:29.497Z,17.37
2018-01-26T03:27:56.929Z,19.60
2018-01-26T03:30:24.357Z,18.52
2018-01-26T03:32:52.594Z,17.60
2018-01-26T03:35:20.030Z,19.00
2018-01-26T03:37:47.497Z,18.25
2018-01-26T03:40:14.942Z,18.50
2018-01-26T03:42:42.413Z,16.75
2018-01-26T03:45:09.869Z,19.35
2018-01-26T03:47:37.321Z,19.60
2018-01-26T03:50:04.753Z,17.25
2018-01-26T03:52:37.863Z,17.52
2018-01-26T03:55:05.281Z,16.65
2018-01-26T03:57:32.790Z,18.10
2018-01-26T04:00:00.240Z,18.30
2018-01-26T04:02:27.798Z,19.80
2018-01-26T04:04:55.361Z,17.30
2018-01-26T04:07:22.814Z,20.02
2018-01-26T04:09:50.261Z,18.50
2018-01-26T04:12:17.717Z,21.15
2018-01-26T04:14:45.177Z,19.30
2018-01-26T04:17:12.664Z,18.65
2018-01-26T04:19:40.090Z,22.10
2018-01-26T04:22:07.567Z,18.07
2018-01-26T04:24:34.981Z,20.83
2018-01-26T04:27:02.413Z,22.35
2018-01-26T04:29:30.647Z,21.23
2018-01-26T04:31:58.090Z,20.45
2018-01-26T04:34:25.545Z,20.23
2018-01-26T04:36:53.002Z,20.05
2018-01-26T04:39:20.447Z,20.30
2018-01-26T04:41:47.873Z,24.30
2018-01-26T04:44:15.382Z,24.08
2018-01-26T04:46:42.896Z,24.58
2018-01-26T04:49:10.325Z,23.30
2018-01-26T04:51:38.524Z,20.75
2018-01-26T04:54:06.014Z,24.58
2018-01-26T04:56:33.477Z,24.40
2018-01-26T04:59:00.921Z,24.15
2018-01-26T05:01:28.354Z,22.40
2018-01-26T05:03:55.826Z,24.35
2018-01-26T05:06:23.305Z,21.00
2018-01-26T05:08:50.762Z,23.27
2018-01-26T05:11:18.197Z,26.23
2018-01-26T05:13:45.782Z,25.52
2018-01-26T05:16:13.245Z,26.83
2018-01-26T05:18:40.686Z,29.20
2018-01-26T05:21:08.122Z,28.10
2018-01-26T05:23:35.613Z,29.85
2018-01-26T05:26:03.041Z,29.58
2018-01-26T05:28:30.621Z,30.37
2018-01-26T05:30:58.077Z,32.90
2018-01-26T05:33:25.541Z,30.90
2018-01-26T05:35:52.985Z,31.52
2018-01-26T05:38:20.470Z,31.05
2018-01-26T05:40:47.858Z,29.90
2018-01-26T05:43:15.286Z,31.58
2018-01-26T05:45:42.781Z,34.13
2018-01-26T05:48:11.098Z,31.85
2018-01-26T05:50:38.641Z,31.47
2018-01-26T05:53:06.098Z,33.97
2018-01-26T05:55:33.549Z,31.33
2018-01-26T05:58:00.981Z,31.48
2018-01-26T06:00:28.553Z,26.50
2018-01-26T06:02:56.121Z,29.52
2018-01-26T06:05:23.586Z,29.20
2018-01-26T06:07:51.057Z,30.73
2018-01-26T06:10:18.586Z,28.30
2018-01-26T06:12:46.829Z,27.33
2018-01-26T06:15:15.053Z,27.40
2018-01-26T06:17:42.477Z,26.17
2018-01-26T06:20:10.057Z,27.52
2018-01-26T06:22:37.503Z,26.67
2018-01-26T06:25:04.977Z,26.42
2018-01-26T06:27:32.428Z,27.60
2018-01-26T06:29:59.850Z,28.12
2018-01-26T06:32:27.294Z,26.48
2018-01-26T06:34:55.493Z,32.10
2018-01-26T06:37:22.933Z,31.05
2018-01-26T06:39:50.434Z,28.42
2018-01-26T06:42:18.661Z,28.95
2018-01-26T06:44:46.161Z,29.70
2018-01-26T06:47:13.728Z,28.83
2018-01-26T06:49:41.297Z,41.08
2018-01-26T06:52:08.811Z,32.72
2018-01-26T06:54:36.271Z,28.95
2018-01-26T06:57:04.453Z,28.67
2018-01-26T06:59:32.009Z,31.62
2018-01-26T07:01:59.486Z,31.60
2018-01-26T07:04:27.009Z,31.58
2018-01-26T07:06:54.510Z,29.90
2018-01-26T07:09:21.978Z,33.35
2018-01-26T07:11:49.574Z,34.90
2018-01-26T07:14:17.075Z,31.02
2018-01-26T07:16:44.572Z,32.20
2018-01-26T07:19:12.015Z,31.83
2018-01-26T07:21:39.453Z,31.10
2018-01-26T07:24:06.901Z,33.65
2018-01-26T07:26:34.380Z,33.47
2018-01-26T07:29:01.873Z,30.65
2018-01-26T07:31:29.328Z,33.88
2018-01-26T07:33:57.550Z,34.42
2018-01-26T07:36:25.021Z,34.53
2018-01-26T07:38:52.598Z,33.45
2018-01-26T07:41:20.389Z,35.28
2018-01-26T07:43:48.626Z,34.70
2018-01-26T07:46:16.062Z,35.75
2018-01-26T07:48:44.336Z,36.35
2018-01-26T07:51:11.872Z,56.63
2018-01-26T07:53:39.446Z,37.70
2018-01-26T07:56:06.885Z,39.90
2018-01-26T07:58:34.382Z,38.67
2018-01-26T08:01:01.917Z,37.90
2018-01-26T08:03:29.370Z,37.80
2018-01-26T08:05:56.794Z,40.90
2018-01-26T08:08:24.275Z,40.65
2018-01-26T08:10:51.687Z,43.97
2018-01-26T08:13:19.929Z,47.80
2018-01-26T08:15:47.341Z,46.53
2018-01-26T08:18:14.843Z,49.25
2018-01-26T08:20:43.042Z,45.25
2018-01-26T08:23:10.676Z,44.83
2018-01-26T08:25:38.150Z,45.50
2018-01-26T08:28:05.649Z,43.92
2018-01-26T08:30:33.120Z,43.03
2018-01-26T08:33:00.569Z,45.22
2018-01-26T08:35:28.022Z,46.25
2018-01-26T08:37:55.608Z,45.45
2018-01-26T08:40:23.098Z,43.72
2018-01-26T08:42:50.555Z,44.17
2018-01-26T08:45:18.001Z,47.28
2018-01-26T08:47:45.490Z,48.10
2018-01-26T08:50:13.722Z,44.87
2018-01-26T08:52:41.213Z,47.95
2018-01-26T08:58:05.369Z,49.53
2018-01-26T09:00:32.905Z,46.63
2018-01-26T09:03:01.089Z,48.22
2018-01-26T09:05:30.148Z,42.53
2018-01-26T09:07:57.634Z,45.40
2018-01-26T09:10:25.822Z,49.90
2018-01-26T09:12:54.038Z,47.37
2018-01-26T09:15:21.501Z,46.00
2018-01-26T09:17:48.972Z,44.60
2018-01-26T09:20:16.418Z,50.08
2018-01-26T09:22:44.159Z,50.42
2018-01-26T09:25:11.879Z,49.10
2018-01-26T09:27:39.326Z,54.70
2018-01-26T09:30:07.539Z,50.20
2018-01-26T09:32:34.996Z,51.57
2018-01-26T09:35:03.185Z,47.55
2018-01-26T09:37:30.674Z,48.22
2018-01-26T09:39:58.502Z,48.78
2018-01-26T09:42:25.929Z,45.05
2018-01-26T09:44:54.145Z,48.08
2018-01-26T09:47:21.575Z,47.90
2018-01-26T09:49:49.185Z,51.80
2018-01-26T09:52:16.691Z,51.08
2018-01-26T09:54:44.121Z,51.78
2018-01-26T09:57:12.335Z,47.00
2018-01-26T09:59:39.818Z,47.60
2018-01-26T10:02:07.267Z,48.40
2018-01-26T10:04:34.718Z,48.13
2018-01-26T10:07:02.150Z,46.17
2018-01-26T10:09:29.638Z,48.10
2018-01-26T10:11:57.510Z,47.58
2018-01-26T10:14:24.955Z,48.65
2018-01-26T10:16:52.502Z,48.75
2018-01-26T10:19:19.998Z,48.55
2018-01-26T10:21:47.539Z,46.55
2018-01-26T10:24:14.978Z,45.78
2018-01-26T10:26:42.428Z,48.13
2018-01-26T10:29:09.930Z,44.30
2018-01-26T10:31:37.361Z,47.97
2018-01-26T10:34:04.799Z,47.40
2018-01-26T10:36:32.241Z,46.58
2018-01-26T10:39:01.259Z,48.45
2018-01-26T10:41:28.714Z,44.40
2018-01-26T10:43:56.182Z,49.35
2018-01-26T10:46:23.662Z,47.10
2018-01-26T10:48:51.286Z,44.20
2018-01-26T10:51:18.766Z,44.20
2018-01-26T10:53:46.210Z,45.08
2018-01-26T10:56:13.665Z,45.95
2018-01-26T10:58:41.089Z,47.08
2018-01-26T11:01:08.516Z,44.17
2018-01-26T11:03:35.970Z,44.25
2018-01-26T11:06:03.428Z,46.72
2018-01-26T11:08:31.705Z,45.80
2018-01-26T11:10:59.142Z,43.45
2018-01-26T11:13:26.668Z,41.45
2018-01-26T11:15:54.126Z,43.60
2018-01-26T11:18:21.553Z,42.55
2018-01-26T11:20:49.873Z,44.47
2018-01-26T11:23:17.346Z,46.90
2018-01-26T11:25:44.802Z,45.38
2018-01-26T11:28:12.240Z,46.10
2018-01-26T11:30:39.682Z,49.22
2018-01-26T11:33:07.262Z,50.50
2018-01-26T11:35:34.750Z,49.78
2018-01-26T11:38:02.200Z,48.78
2018-01-26T11:40:29.674Z,46.05
2018-01-26T11:42:57.157Z,45.22
2018-01-26T11:45:24.717Z,49.08
2018-01-26T11:47:52.350Z,47.33
2018-01-26T11:50:20.579Z,47.35
2018-01-26T11:52:48.230Z,47.40
2018-01-26T11:55:15.654Z,46.33
2018-01-26T11:57:43.085Z,45.72
2018-01-26T12:00:10.565Z,48.83
2018-01-26T12:02:38.873Z,49.85
2018-01-26T12:05:06.309Z,46.35
2018-01-26T12:07:33.817Z,43.22
2018-01-26T12:10:01.254Z,42.73
2018-01-26T12:12:29.012Z,51.00
2018-01-26T12:14:56.471Z,41.67
2018-01-26T12:17:23.898Z,45.67
2018-01-26T12:19:51.324Z,47.88
2018-01-26T12:22:18.844Z,47.30
2018-01-26T12:24:46.282Z,46.50
2018-01-26T12:27:13.778Z,44.90
2018-01-26T12:29:41.341Z,45.17
2018-01-26T12:32:08.794Z,44.13
2018-01-26T12:34:36.233Z,42.33
2018-01-26T12:37:03.878Z,47.20
2018-01-26T12:39:31.292Z,44.07
2018-01-26T12:41:59.562Z,46.97
2018-01-26T12:44:27.012Z,48.67
2018-01-26T12:46:54.627Z,48.85
2018-01-26T12:49:22.557Z,49.75
2018-01-26T12:51:50.065Z,50.80
2018-01-26T12:54:17.521Z,52.97
2018-01-26T12:56:45.220Z,51.47
2018-01-26T12:59:12.733Z,50.63
2018-01-26T13:01:40.235Z,54.70
2018-01-26T13:04:07.650Z,58.58
2018-01-26T13:06:35.102Z,59.60
2018-01-26T13:09:02.530Z,56.95
2018-01-26T13:11:30.037Z,58.67
2018-01-26T13:13:57.481Z,59.00
2018-01-26T13:16:24.934Z,56.78
2018-01-26T13:18:53.189Z,54.80
2018-01-26T13:21:20.691Z,60.83
2018-01-26T13:23:48.230Z,54.45
2018-01-26T13:26:15.702Z,57.40
2018-01-26T13:28:43.718Z,54.55
2018-01-26T13:31:11.909Z,55.00
2018-01-26T13:33:39.406Z,58.85
2018-01-26T13:36:06.870Z,58.95
2018-01-26T13:38:34.302Z,53.23
2018-01-26T13:41:01.769Z,52.08
2018-01-26T13:43:29.221Z,50.63
2018-01-26T13:45:56.770Z,53.85
2018-01-26T13:48:24.326Z,56.37
2018-01-26T13:50:51.754Z,53.13
2018-01-26T13:53:19.240Z,51.78
2018-01-26T13:55:46.674Z,55.90
2018-01-26T13:58:14.962Z,54.05
2018-01-26T14:00:42.654Z,53.90
2018-01-26T14:03:10.167Z,57.20
2018-01-26T14:05:37.658Z,62.57
2018-01-26T14:08:05.078Z,55.03
2018-01-26T14:10:32.518Z,53.42
2018-01-26T14:12:59.972Z,58.90
2018-01-26T14:15:27.438Z,58.25
2018-01-26T14:17:55.782Z,60.30
2018-01-26T14:20:23.980Z,58.95
2018-01-26T14:22:51.458Z,61.28
2018-01-26T14:25:18.933Z,74.15
2018-01-26T14:27:46.409Z,69.82
2018-01-26T14:30:13.955Z,70.65
2018-01-26T14:32:41.373Z,71.75
2018-01-26T14:35:08.862Z,67.12
2018-01-26T14:37:36.534Z,63.10
2018-01-26T14:40:03.894Z,54.40
2018-01-26T14:42:31.344Z,55.55
2018-01-26T14:44:58.899Z,55.30
2018-01-26T14:47:26.442Z,55.93
2018-01-26T14:49:53.916Z,52.83
2018-01-26T14:52:21.353Z,56.58
2018-01-26T14:54:48.798Z,51.75
2018-01-26T14:57:16.271Z,52.47
2018-01-26T14:59:43.707Z,50.80
2018-01-26T15:02:11.160Z,50.53
2018-01-26T15:04:38.601Z,52.08
2018-01-26T15:07:07.204Z,50.07
2018-01-26T15:09:34.702Z,50.97
2018-01-26T15:12:02.322Z,52.50
2018-01-26T15:14:30.174Z,55.57
2018-01-26T15:16:57.631Z,49.35
2018-01-26T15:19:25.113Z,54.50
2018-01-26T15:21:52.573Z,54.40
2018-01-26T15:24:20.001Z,54.90
2018-01-26T15:26:47.513Z,51.60
2018-01-26T15:29:14.928Z,66.18
2018-01-26T15:31:42.392Z,64.87
2018-01-26T15:34:09.805Z,65.35
2018-01-26T15:36:38.018Z,71.07
2018-01-26T15:39:05.497Z,63.67
2018-01-26T15:41:32.945Z,66.73
2018-01-26T15:44:00.407Z,59.90
2018-01-26T15:46:27.865Z,55.25
2018-01-26T15:48:55.318Z,60.65
2018-01-26T15:51:22.758Z,55.85
2018-01-26T15:53:50.206Z,53.75
2018-01-26T15:56:17.681Z,53.90
2018-01-26T15:58:45.174Z,49.45
2018-01-26T16:01:12.706Z,42.70
2018-01-26T16:03:40.149Z,50.50
2018-01-26T16:06:07.697Z,49.20
2018-01-26T16:08:35.130Z,50.50
2018-01-26T16:11:02.601Z,52.50
2018-01-26T16:13:30.034Z,49.33
2018-01-26T16:16:04.034Z,49.67
2018-01-26T16:18:31.563Z,52.28
2018-01-26T16:21:02.606Z,53.30
2018-01-26T16:23:30.046Z,52.33
2018-01-26T16:25:57.479Z,55.08
2018-01-26T16:28:25.044Z,49.25
2018-01-26T16:30:52.485Z,50.47
2018-01-26T16:33:19.972Z,52.13
2018-01-26T16:35:47.421Z,50.92
2018-01-26T16:38:15.630Z,46.25
2018-01-26T16:40:43.702Z,45.03
2018-01-26T16:43:11.165Z,40.78
2018-01-26T16:45:38.776Z,40.00
2018-01-26T16:48:06.262Z,36.55
2018-01-26T16:50:33.817Z,34.10
2018-01-26T16:53:01.350Z,36.28
2018-01-26T16:55:28.864Z,40.88
2018-01-26T16:57:57.094Z,36.50
2018-01-26T17:00:24.538Z,38.08
2018-01-26T17:02:51.978Z,38.70
2018-01-26T17:05:19.422Z,40.40
2018-01-26T17:07:47.629Z,42.30
2018-01-26T17:10:15.079Z,47.00
2018-01-26T17:12:42.934Z,33.20
2018-01-26T17:15:10.392Z,34.45
2018-01-26T17:17:37.909Z,39.75
2018-01-26T17:20:06.842Z,37.83
2018-01-26T17:22:34.717Z,42.60
2018-01-26T17:25:02.173Z,41.90
2018-01-26T17:27:29.594Z,40.72
2018-01-26T17:29:57.889Z,46.75
2018-01-26T17:32:25.977Z,49.92
2018-01-26T17:34:53.389Z,47.05
2018-01-26T17:37:21.612Z,47.22
2018-01-26T17:39:50.107Z,51.63
2018-01-26T17:42:17.557Z,44.05
2018-01-26T17:44:45.036Z,48.45
2018-01-26T17:47:12.469Z,44.88
2018-01-26T17:49:39.938Z,45.12
2018-01-26T17:52:07.398Z,48.37
2018-01-26T17:54:34.945Z,46.08
2018-01-26T17:57:02.426Z,46.88
2018-01-26T17:59:29.877Z,44.58
2018-01-26T18:01:57.313Z,43.95
2018-01-26T18:04:24.746Z,49.10
2018-01-26T18:06:52.189Z,50.20
2018-01-26T18:09:19.671Z,42.20
2018-01-26T18:11:47.089Z,43.17
2018-01-26T18:14:15.290Z,42.95
2018-01-26T18:16:42.734Z,36.35
2018-01-26T18:19:10.170Z,38.17
2018-01-26T18:21:38.387Z,40.92
2018-01-26T18:24:05.837Z,40.55
2018-01-26T18:26:33.738Z,43.23
2018-01-26T18:29:01.132Z,38.35
2018-01-26T18:31:28.637Z,39.70
2018-01-26T18:33:56.078Z,43.53
2018-01-26T18:36:23.523Z,32.77
2018-01-26T18:38:50.959Z,35.67
2018-01-26T18:41:19.124Z,36.05
2018-01-26T18:43:47.348Z,36.85
2018-01-26T18:46:14.788Z,34.53
2018-01-26T18:48:42.417Z,43.78
2018-01-26T18:51:09.871Z,45.70
2018-01-26T18:53:38.125Z,51.05
2018-01-26T18:56:05.565Z,53.90
2018-01-26T18:58:33.110Z,53.47
2018-01-26T19:01:00.575Z,54.13
2018-01-26T19:03:28.950Z,53.10
2018-01-26T19:05:56.403Z,60.60
2018-01-26T19:08:23.866Z,55.40
2018-01-26T19:10:51.306Z,54.80
2018-01-26T19:13:18.750Z,50.85
2018-01-26T19:15:46.181Z,64.45
2018-01-26T19:18:13.622Z,60.00
2018-01-26T19:20:41.865Z,57.00
2018-01-26T19:23:09.317Z,55.17
2018-01-26T19:25:36.779Z,55.88
2018-01-26T19:28:04.226Z,57.67
2018-01-26T19:30:31.653Z,52.58
2018-01-26T19:32:59.107Z,58.55
2018-01-26T19:35:26.571Z,62.75
2018-01-26T19:37:54.005Z,66.18
2018-01-26T19:40:21.461Z,60.35
2018-01-26T19:42:48.973Z,61.08
2018-01-26T19:45:16.408Z,63.60
2018-01-26T19:47:43.874Z,63.08
2018-01-26T19:50:11.321Z,70.70
2018-01-26T19:52:38.765Z,67.03
2018-01-26T19:55:06.257Z,67.57
2018-01-26T19:57:33.710Z,69.47
2018-01-26T20:00:01.204Z,75.22
2018-01-26T20:02:28.622Z,73.72
2018-01-26T20:08:32.397Z,69.32
2018-01-26T20:11:00.597Z,67.95
2018-01-26T20:13:28.076Z,71.83
2018-01-26T20:15:55.544Z,62.13
2018-01-26T20:18:22.991Z,62.60
2018-01-26T20:20:50.417Z,69.30
2018-01-26T20:23:17.882Z,65.80
2018-01-26T20:25:45.313Z,63.92
2018-01-26T20:28:13.510Z,54.00
2018-01-26T20:30:41.015Z,57.80
2018-01-26T20:33:08.467Z,53.42
2018-01-26T20:35:37.424Z,53.75
2018-01-26T20:38:04.914Z,56.30
2018-01-26T20:40:32.358Z,55.63
2018-01-26T20:43:00.905Z,52.53
2018-01-26T20:45:28.506Z,52.85
2018-01-26T20:47:55.942Z,50.90
2018-01-26T20:50:23.403Z,50.42
2018-01-26T20:52:50.838Z,49.38
2018-01-26T20:55:18.278Z,49.95
2018-01-26T20:57:46.630Z,52.78
2018-01-26T21:00:14.061Z,54.42
2018-01-26T21:02:41.490Z,43.37
2018-01-26T21:05:08.925Z,47.70
2018-01-26T21:07:36.453Z,51.05
2018-01-26T21:10:05.797Z,45.78
2018-01-26T21:12:33.462Z,52.75
2018-01-26T21:15:00.929Z,54.20
2018-01-26T21:17:28.389Z,48.80
2018-01-26T21:19:55.826Z,51.75
2018-01-26T21:22:23.250Z,55.95
2018-01-26T21:24:51.481Z,52.42
2018-01-26T21:27:18.922Z,55.75
2018-01-26T21:29:46.386Z,52.90
2018-01-26T21:32:13.828Z,51.92
2018-01-26T21:34:41.297Z,52.67
2018-01-26T21:37:08.844Z,52.90
2018-01-26T21:39:36.300Z,52.13
2018-01-26T21:42:03.862Z,53.72
2018-01-26T21:44:31.277Z,54.63
2018-01-26T21:46:59.475Z,48.13
2018-01-26T21:49:26.934Z,49.85
2018-01-26T21:51:54.429Z,53.13
2018-01-26T21:54:21.858Z,51.10
2018-01-26T21:56:49.333Z,51.20
2018-01-26T21:59:16.769Z,50.60
2018-01-26T22:01:44.345Z,48.42
2018-01-26T22:04:11.986Z,47.05
2018-01-26T22:06:45.179Z,49.38
2018-01-26T22:09:12.673Z,44.42
2018-01-26T22:11:40.125Z,46.75
2018-01-26T22:14:07.573Z,44.58
2018-01-26T22:16:35.009Z,41.80
2018-01-26T22:19:02.463Z,40.03
2018-01-26T22:21:29.946Z,44.87
2018-01-26T22:23:57.377Z,43.53
2018-01-26T22:26:24.846Z,45.47
2018-01-26T22:28:52.301Z,39.75
2018-01-26T22:31:19.761Z,48.72
2018-01-26T22:33:47.672Z,47.50
2018-01-26T22:36:15.872Z,48.90
2018-01-26T22:38:43.296Z,50.60
2018-01-26T22:41:10.907Z,54.13
2018-01-26T22:43:38.315Z,53.67
2018-01-26T22:46:05.843Z,52.37
2018-01-26T22:48:33.270Z,49.97
2018-01-26T22:51:00.757Z,58.67
2018-01-26T22:53:28.194Z,58.47
2018-01-26T22:55:55.661Z,53.78
2018-01-26T22:58:23.124Z,52.13
2018-01-26T23:00:50.558Z,52.38
2018-01-26T23:03:18.005Z,55.20
2018-01-26T23:05:45.490Z,56.03
2018-01-26T23:08:13.034Z,53.28
2018-01-26T23:10:40.510Z,49.55
2018-01-26T23:13:07.950Z,46.03
2018-01-26T23:15:35.428Z,36.45
2018-01-26T23:18:02.870Z,31.73
2018-01-26T23:20:30.335Z,28.75
2018-01-26T23:22:57.773Z,28.70
2018-01-26T23:25:25.272Z,26.75
2018-01-26T23:27:52.702Z,30.42
2018-01-26T23:30:20.174Z,31.60
2018-01-26T23:32:47.625Z,29.10
2018-01-26T23:35:15.060Z,28.02
2018-01-26T23:37:42.530Z,28.52
2018-01-26T23:40:10.002Z,27.98
2018-01-26T23:42:37.474Z,28.48
2018-01-26T23:45:04.897Z,28.75
2018-01-26T23:47:32.331Z,30.58
2018-01-26T23:49:59.789Z,29.45
2018-01-26T23:52:27.949Z,30.27
2018-01-26T23:54:55.441Z,30.15
2018-01-26T23:57:22.885Z,53.28
2018-01-26T23:59:50.444Z,25.60
